Time;durP1;ratioP1;P1;durP2;ratioP2;P2;SDS_P1;SDS_P2;PMS_P1;PMS_P2;Temp;Humidity;BMP_temperature;BMP_pressure;BME280_temperature;BME280_humidity;BME280_pressure;Samples;Min_cycle;Max_cycle;Signal;HPM_P1;HPM_P2
2023/12/07 00:01:37;;;;;;;51.38;26.80;;;;;;;5.60;100.00;99786.84;5089705;28;20028;-78
2023/12/07 00:04:03;;;;;;;54.25;27.63;;;;;;;5.65;100.00;99776.47;5089681;28;20043;-79
2023/12/07 00:06:29;;;;;;;55.15;27.77;;;;;;;5.81;100.00;99764.78;5071445;28;20093;-78
2023/12/07 00:08:54;;;;;;;52.30;26.70;;;;;;;5.63;100.00;99768.72;5089628;28;20028;-79
2023/12/07 00:11:22;;;;;;;53.67;27.23;;;;;;;5.57;100.00;99752.81;5089656;28;20028;-78
2023/12/07 00:13:48;;;;;;;49.58;25.98;;;;;;;5.27;100.00;99725.75;5096735;28;20073;-78
2023/12/07 00:16:13;;;;;;;56.10;28.58;;;;;;;5.42;100.00;99755.56;5103755;28;20025;-78
2023/12/07 00:18:39;;;;;;;55.90;27.88;;;;;;;5.24;100.00;99754.22;5075476;28;20464;-78
2023/12/07 00:21:04;;;;;;;55.03;26.98;;;;;;;5.27;100.00;99795.34;5093519;28;20020;-80
2023/12/07 00:23:30;;;;;;;50.58;26.10;;;;;;;5.15;100.00;99750.09;5093729;28;20118;-78
2023/12/07 00:25:55;;;;;;;52.63;26.75;;;;;;;5.47;100.00;99792.03;5093526;28;20085;-78
2023/12/07 00:28:20;;;;;;;49.25;26.48;;;;;;;5.21;100.00;99756.41;5075339;28;20027;-78
2023/12/07 00:30:46;;;;;;;60.67;30.45;;;;;;;5.22;100.00;99760.72;5093385;28;20411;-78
2023/12/07 00:33:12;;;;;;;64.35;30.70;;;;;;;5.13;100.00;99762.69;5093844;28;20023;-78
2023/12/07 00:35:37;;;;;;;72.95;33.28;;;;;;;5.28;100.00;99765.22;5088050;28;20032;-78
2023/12/07 00:38:03;;;;;;;75.28;31.77;;;;;;;5.16;100.00;99735.84;5094008;28;20024;-78
2023/12/07 00:40:28;;;;;;;73.30;31.50;;;;;;;5.27;100.00;99757.47;5093462;28;20100;-80
2023/12/07 00:42:54;;;;;;;88.35;32.97;;;;;;;5.29;100.00;99772.16;5093495;28;20036;-79
2023/12/07 00:45:19;;;;;;;127.70;34.13;;;;;;;5.56;100.00;99778.47;5106551;28;20031;-78
2023/12/07 00:47:45;;;;;;;127.00;29.95;;;;;;;5.39;100.00;99764.72;5113490;28;20034;-79
2023/12/07 00:50:14;;;;;;;192.45;34.35;;;;;;;5.51;100.00;99762.34;5095334;28;20478;-77
2023/12/07 00:52:39;;;;;;;134.02;32.30;;;;;;;5.69;100.00;99779.56;5089077;28;20048;-78
2023/12/07 00:55:05;;;;;;;126.28;29.95;;;;;;;5.44;100.00;99782.66;5083963;28;20036;-79
2023/12/07 00:57:31;;;;;;;141.65;30.08;;;;;;;5.28;100.00;99775.00;5073233;28;20046;-78
2023/12/07 00:59:56;;;;;;;106.55;27.67;;;;;;;5.50;100.00;99768.66;5073005;28;20075;-78
2023/12/07 01:02:22;;;;;;;115.72;28.75;;;;;;;5.63;100.00;99789.09;5073177;28;20032;-79
2023/12/07 01:04:47;;;;;;;117.78;29.00;;;;;;;5.40;100.00;99779.56;5073264;28;20027;-79
2023/12/07 01:07:12;;;;;;;102.72;28.95;;;;;;;5.51;100.00;99780.84;5072979;28;20036;-79
2023/12/07 01:09:38;;;;;;;88.35;28.77;;;;;;;5.44;100.00;99769.44;5080462;28;20404;-79
2023/12/07 01:12:03;;;;;;;134.80;31.08;;;;;;;5.39;100.00;99766.53;5083208;28;20028;-78
2023/12/07 01:14:29;;;;;;;101.47;26.92;;;;;;;5.16;100.00;99757.00;5083024;28;20043;-79
2023/12/07 01:16:54;;;;;;;120.15;28.55;;;;;;;5.02;100.00;99752.59;5083772;28;20052;-78
2023/12/07 01:19:20;;;;;;;99.78;28.25;;;;;;;5.16;100.00;99764.94;5083495;28;20024;-78
2023/12/07 01:21:45;;;;;;;128.73;28.65;;;;;;;5.27;100.00;99762.78;5083277;28;20029;-79
2023/12/07 01:24:11;;;;;;;99.00;27.50;;;;;;;5.39;100.00;99750.66;5082339;28;20103;-79
2023/12/07 01:26:36;;;;;;;76.40;27.52;;;;;;;5.26;100.00;99737.34;5082548;28;20036;-79
2023/12/07 01:29:02;;;;;;;91.68;28.05;;;;;;;5.46;100.00;99771.88;5083193;28;20032;-78
2023/12/07 01:31:28;;;;;;;98.57;27.92;;;;;;;5.34;100.00;99755.72;5082929;28;20032;-79
2023/12/07 01:33:53;;;;;;;75.90;27.42;;;;;;;5.22;100.00;99760.72;5085587;28;20027;-78
2023/12/07 01:36:19;;;;;;;69.53;27.45;;;;;;;5.12;100.00;99726.66;5084967;28;20459;-79
2023/12/07 01:38:45;;;;;;;60.05;24.80;;;;;;;4.77;100.00;99710.72;5085181;28;20025;-79
2023/12/07 01:41:10;;;;;;;86.28;26.05;;;;;;;4.81;100.00;99737.59;5084843;28;20025;-80
2023/12/07 01:43:36;;;;;;;72.55;25.00;;;;;;;4.74;100.00;99768.41;5084916;28;20046;-79
2023/12/07 01:46:02;;;;;;;62.53;23.30;;;;;;;4.75;100.00;99755.00;5083800;28;20033;-79
2023/12/07 01:48:28;;;;;;;111.95;26.50;;;;;;;4.81;100.00;99759.53;5083457;28;20025;-78
2023/12/07 01:50:56;;;;;;;94.55;24.30;;;;;;;5.06;100.00;99751.22;5082397;28;20025;-78
2023/12/07 01:53:23;;;;;;;69.38;24.45;;;;;;;5.06;100.00;99739.84;5094065;28;20059;-78
2023/12/07 01:55:49;;;;;;;127.28;26.02;;;;;;;4.89;100.00;99741.94;5101979;28;20102;-81
2023/12/07 01:58:17;;;;;;;105.60;24.83;;;;;;;4.96;100.00;99756.81;5080930;28;20424;-79
2023/12/07 02:00:42;;;;;;;103.05;24.70;;;;;;;4.97;100.00;99753.19;5096130;28;20024;-77
2023/12/07 02:03:08;;;;;;;128.30;25.95;;;;;;;5.16;100.00;99758.84;5094917;28;20415;-78
2023/12/07 02:05:35;;;;;;;92.00;25.35;;;;;;;5.12;100.00;99745.16;5093547;28;20051;-78
2023/12/07 02:08:00;;;;;;;104.53;24.95;;;;;;;5.18;100.00;99748.88;5092831;28;20032;-79
2023/12/07 02:10:26;;;;;;;84.95;24.90;;;;;;;5.16;100.00;99749.06;5092791;28;20085;-77
2023/12/07 02:12:53;;;;;;;67.05;22.40;;;;;;;5.21;100.00;99762.53;5092243;28;20024;-78
2023/12/07 02:15:19;;;;;;;69.57;21.25;;;;;;;5.10;100.00;99752.47;5092301;28;20063;-80
2023/12/07 02:17:59;;;;;;;61.78;23.27;;;;;;;5.20;100.00;99768.00;5090494;28;20028;-77
2023/12/07 02:20:36;;;;;;;53.80;21.77;;;;;;;5.04;100.00;99750.59;5092111;28;20038;-79
2023/12/07 02:23:04;;;;;;;45.83;22.17;;;;;;;4.99;100.00;99740.59;5092046;28;20028;-79
2023/12/07 02:25:37;;;;;;;39.47;23.38;;;;;;;5.17;100.00;99774.50;5091541;28;20043;-78
2023/12/07 02:28:03;;;;;;;40.40;21.90;;;;;;;4.98;100.00;99770.66;5091903;28;20031;-79
2023/12/07 02:30:28;;;;;;;39.47;22.00;;;;;;;5.08;100.00;99773.00;5073245;28;20043;-79
2023/12/07 02:32:54;;;;;;;40.50;22.15;;;;;;;5.09;100.00;99756.16;5091436;28;20024;-79
2023/12/07 02:35:20;;;;;;;39.55;23.35;;;;;;;5.07;100.00;99744.94;5091092;28;20093;-79
2023/12/07 02:37:49;;;;;;;37.92;22.50;;;;;;;5.19;100.00;99761.91;5090655;28;20028;-79
2023/12/07 02:40:19;;;;;;;37.50;22.10;;;;;;;5.11;100.00;99742.72;5073001;28;20111;-79
2023/12/07 02:42:46;;;;;;;35.75;21.77;;;;;;;5.01;100.00;99724.56;5090888;28;20089;-80
2023/12/07 02:45:12;;;;;;;37.03;21.67;;;;;;;5.15;100.00;99731.59;5091227;28;20024;-79
2023/12/07 02:47:38;;;;;;;38.20;21.85;;;;;;;5.19;100.00;99735.47;5087844;28;20558;-79
2023/12/07 02:50:06;;;;;;;40.30;23.08;;;;;;;5.27;100.00;99745.09;5091031;28;20680;-79
2023/12/07 02:52:31;;;;;;;37.38;22.67;;;;;;;4.96;100.00;99734.88;5090449;28;20050;-78
2023/12/07 02:54:57;;;;;;;35.17;21.17;;;;;;;4.98;100.00;99738.94;5072596;28;20020;-79
2023/12/07 02:57:22;;;;;;;36.53;20.30;;;;;;;4.91;100.00;99738.09;5090747;28;20100;-80
2023/12/07 02:59:48;;;;;;;35.03;19.75;;;;;;;4.82;100.00;99761.19;5091094;28;20024;-78
2023/12/07 03:02:13;;;;;;;32.90;19.42;;;;;;;4.30;100.00;99698.09;5090377;28;20024;-77
2023/12/07 03:04:38;;;;;;;34.22;19.73;;;;;;;4.77;100.00;99744.25;5090590;28;20028;-79
2023/12/07 03:07:04;;;;;;;34.53;19.75;;;;;;;4.70;100.00;99731.00;5093542;28;20115;-79
2023/12/07 03:09:29;;;;;;;35.30;21.20;;;;;;;5.13;100.00;99760.03;5090905;28;20481;-79
2023/12/07 03:11:55;;;;;;;36.67;20.73;;;;;;;5.19;100.00;99761.06;5072325;28;20034;-79
2023/12/07 03:14:20;;;;;;;34.55;20.80;;;;;;;4.97;100.00;99749.75;5090337;28;20499;-79
2023/12/07 03:16:45;;;;;;;33.22;19.13;;;;;;;4.62;100.00;99752.25;5072421;28;20020;-78
2023/12/07 03:19:11;;;;;;;34.25;19.85;;;;;;;4.40;100.00;99754.84;5075038;28;20028;-79
2023/12/07 03:21:40;;;;;;;36.33;20.33;;;;;;;4.29;100.00;99739.50;5090545;28;20054;-80
2023/12/07 03:24:09;;;;;;;35.08;20.67;;;;;;;4.64;100.00;99752.88;5090403;28;20473;-79
2023/12/07 03:26:35;;;;;;;54.00;22.77;;;;;;;4.66;100.00;99737.66;5082019;28;20603;-79
2023/12/07 03:29:01;;;;;;;50.05;24.77;;;;;;;4.66;100.00;99745.59;5086623;28;20065;-80
2023/12/07 03:31:27;;;;;;;53.67;24.02;;;;;;;4.61;100.00;99763.81;5089928;28;20542;-82
2023/12/07 03:33:53;;;;;;;66.22;22.67;;;;;;;4.49;100.00;99749.47;5090362;28;20428;-79
2023/12/07 03:36:18;;;;;;;54.25;22.50;;;;;;;4.54;100.00;99736.53;5090164;28;20024;-79
2023/12/07 03:38:44;;;;;;;71.10;24.60;;;;;;;4.65;100.00;99738.66;5093840;28;20567;-79
2023/12/07 03:41:09;;;;;;;74.68;26.35;;;;;;;4.65;100.00;99730.72;5089662;28;20024;-79
2023/12/07 03:43:34;;;;;;;132.80;29.60;;;;;;;4.93;100.00;99751.94;5089843;28;20022;-79
2023/12/07 03:46:04;;;;;;;74.72;25.73;;;;;;;4.78;100.00;99738.81;5087458;28;20020;-79
2023/12/07 03:48:30;;;;;;;115.75;29.05;;;;;;;4.43;100.00;99725.44;5075554;28;20078;-79
2023/12/07 03:50:55;;;;;;;112.45;28.38;;;;;;;4.27;100.00;99760.00;5089706;28;20036;-81
2023/12/07 03:53:20;;;;;;;78.07;23.83;;;;;;;3.95;100.00;99733.00;5089384;28;20520;-78
2023/12/07 03:55:46;;;;;;;154.60;27.02;;;;;;;4.17;100.00;99744.44;5089905;28;20028;-78
2023/12/07 03:58:13;;;;;;;107.75;26.45;;;;;;;3.91;100.00;99741.47;5089665;28;20032;-80
2023/12/07 04:00:39;;;;;;;97.05;27.75;;;;;;;3.93;100.00;99755.31;5090157;28;20492;-79
2023/12/07 04:03:04;;;;;;;113.78;26.92;;;;;;;3.95;100.00;99743.56;5090422;28;20095;-79
2023/12/07 04:05:29;;;;;;;131.95;27.77;;;;;;;3.97;100.00;99723.09;5071982;28;20411;-79
2023/12/07 04:07:55;;;;;;;142.50;26.42;;;;;;;4.52;100.00;99757.03;5071810;28;20028;-78
2023/12/07 04:10:20;;;;;;;119.38;32.03;;;;;;;4.53;100.00;99746.25;5089426;28;20036;-79
2023/12/07 04:12:45;;;;;;;146.95;28.55;;;;;;;4.41;100.00;99745.94;5071726;28;20035;-78
2023/12/07 04:15:11;;;;;;;77.03;25.13;;;;;;;3.85;100.00;99727.19;5090043;28;20031;-79
2023/12/07 04:17:36;;;;;;;130.05;35.92;;;;;;;3.49;100.00;99717.38;5089760;28;20024;-78
2023/12/07 04:20:02;;;;;;;114.72;27.13;;;;;;;3.57;100.00;99727.00;5089982;28;20404;-79
2023/12/07 04:22:28;;;;;;;127.00;25.38;;;;;;;3.76;100.00;99749.38;5089286;28;20052;-79
2023/12/07 04:24:54;;;;;;;110.30;26.10;;;;;;;3.87;100.00;99748.94;5089808;28;20024;-78
2023/12/07 04:27:19;;;;;;;65.28;23.92;;;;;;;4.12;100.00;99748.63;5089179;28;20032;-79
2023/12/07 04:29:45;;;;;;;63.00;23.23;;;;;;;3.42;100.00;99738.38;5093538;28;20576;-79
2023/12/07 04:32:10;;;;;;;70.00;24.00;;;;;;;3.47;100.00;99761.56;5089346;28;20122;-79
2023/12/07 04:34:36;;;;;;;79.47;24.23;;;;;;;3.75;100.00;99763.59;5089749;28;20016;-78
2023/12/07 04:37:02;;;;;;;89.65;29.13;;;;;;;3.94;100.00;99763.03;5079454;28;20039;-78
2023/12/07 04:39:28;;;;;;;94.25;27.45;;;;;;;4.11;100.00;99757.56;5061293;28;20500;-79
2023/12/07 04:41:54;;;;;;;91.20;26.58;;;;;;;3.59;100.00;99736.38;5089218;28;20028;-78
2023/12/07 04:44:19;;;;;;;63.83;26.10;;;;;;;3.32;100.00;99731.72;5089398;28;20038;-78
2023/12/07 04:46:44;;;;;;;43.22;20.38;;;;;;;3.54;100.00;99759.03;5089581;28;20444;-79
2023/12/07 04:49:10;;;;;;;43.50;21.75;;;;;;;3.34;100.00;99778.00;5089466;28;20407;-77
2023/12/07 04:51:35;;;;;;;117.70;23.35;;;;;;;3.25;100.00;99768.53;5089790;28;20964;-78
2023/12/07 04:54:01;;;;;;;110.20;23.13;;;;;;;3.27;100.00;99761.25;5089134;28;20050;-79
2023/12/07 04:56:26;;;;;;;87.70;23.38;;;;;;;3.17;100.00;99782.59;5089412;28;20099;-80
2023/12/07 04:58:52;;;;;;;102.05;22.70;;;;;;;2.91;100.00;99763.72;5090023;28;20119;-79
2023/12/07 05:01:18;;;;;;;63.20;21.70;;;;;;;3.33;100.00;99767.63;5093129;28;20502;-79
2023/12/07 05:03:44;;;;;;;62.03;21.73;;;;;;;3.68;100.00;99765.28;5093415;28;20031;-79
2023/12/07 05:06:10;;;;;;;97.03;21.95;;;;;;;3.71;100.00;99768.41;5093430;28;20036;-78
2023/12/07 05:08:35;;;;;;;55.45;22.65;;;;;;;3.77;100.00;99766.84;5093280;28;20048;-78
2023/12/07 05:11:01;;;;;;;70.18;28.85;;;;;;;3.82;100.00;99759.19;5097172;28;20059;-79
2023/12/07 05:13:26;;;;;;;76.68;27.85;;;;;;;3.73;100.00;99763.75;5092916;28;20051;-80
2023/12/07 05:15:51;;;;;;;73.38;30.63;;;;;;;3.77;100.00;99767.66;5093085;28;20024;-79
2023/12/07 05:18:17;;;;;;;121.43;44.80;;;;;;;3.56;100.00;99765.75;5092425;28;20039;-80
2023/12/07 05:20:43;;;;;;;79.68;34.72;;;;;;;3.86;100.00;99771.03;5097003;28;20504;-80
2023/12/07 05:23:08;;;;;;;64.40;34.63;;;;;;;3.88;100.00;99762.94;5092293;28;20085;-78
2023/12/07 05:25:34;;;;;;;52.05;33.13;;;;;;;4.25;100.00;99777.00;5092646;28;20021;-79
2023/12/07 05:27:59;;;;;;;48.47;29.17;;;;;;;3.69;100.00;99766.94;5074064;28;20039;-78
2023/12/07 05:30:25;;;;;;;35.58;22.00;;;;;;;3.55;100.00;99782.56;5096915;28;20034;-78
2023/12/07 05:32:50;;;;;;;36.33;23.23;;;;;;;3.38;100.00;99789.81;5092059;28;20166;-80
2023/12/07 05:35:16;;;;;;;38.72;24.17;;;;;;;3.36;100.00;99783.09;5092266;28;20485;-79
2023/12/07 05:37:42;;;;;;;39.38;24.90;;;;;;;3.42;100.00;99764.72;5078097;28;20444;-78
2023/12/07 05:40:09;;;;;;;35.15;21.80;;;;;;;3.75;100.00;99785.50;5081428;28;20035;-79
2023/12/07 05:42:34;;;;;;;37.70;22.60;;;;;;;3.98;100.00;99768.75;5092310;28;20553;-79
2023/12/07 05:45:00;;;;;;;36.30;21.83;;;;;;;4.12;100.00;99791.66;5092311;28;20065;-78
2023/12/07 05:47:26;;;;;;;32.70;20.00;;;;;;;4.05;100.00;99784.69;5092269;28;20111;-78
2023/12/07 05:49:52;;;;;;;33.72;20.73;;;;;;;4.09;100.00;99785.97;5092213;28;20032;-79
2023/12/07 05:52:17;;;;;;;36.20;20.23;;;;;;;4.18;100.00;99782.22;5091600;28;20060;-78
2023/12/07 05:54:43;;;;;;;37.15;23.00;;;;;;;3.88;100.00;99784.03;5092161;28;20031;-78
2023/12/07 05:57:08;;;;;;;50.45;34.13;;;;;;;4.08;100.00;99794.88;5091735;28;20036;-79
2023/12/07 05:59:38;;;;;;;38.20;25.52;;;;;;;4.19;100.00;99791.78;5091739;28;20101;-78
2023/12/07 06:02:04;;;;;;;43.58;27.83;;;;;;;4.36;100.00;99801.09;5110441;28;20039;-79
2023/12/07 06:04:30;;;;;;;50.47;32.05;;;;;;;4.08;100.00;99800.16;5112356;28;20024;-78
2023/12/07 06:06:56;;;;;;;738.08;432.00;;;;;;;3.97;100.00;99801.44;5087667;28;20031;-80
2023/12/07 06:09:21;;;;;;;81.22;47.70;;;;;;;4.27;100.00;99831.28;5074330;28;20384;-80
2023/12/07 06:11:47;;;;;;;52.92;34.05;;;;;;;4.33;100.00;99814.69;5091342;28;20035;-78
2023/12/07 06:14:12;;;;;;;97.43;65.07;;;;;;;3.93;100.00;99787.78;5091793;28;20032;-79
2023/12/07 06:16:37;;;;;;;86.30;52.88;;;;;;;3.86;100.00;99834.34;5073159;28;20758;-78
2023/12/07 06:19:03;;;;;;;75.85;52.50;;;;;;;3.79;100.00;99791.22;5091884;28;20024;-79
2023/12/07 06:21:30;;;;;;;60.67;41.22;;;;;;;4.19;100.00;99841.94;5091531;28;20047;-78
2023/12/07 06:23:56;;;;;;;72.75;53.70;;;;;;;4.08;100.00;99831.81;5092022;28;20046;-78
2023/12/07 06:26:21;;;;;;;98.32;81.47;;;;;;;4.19;100.00;99829.53;5091232;28;20036;-79
2023/12/07 06:28:47;;;;;;;67.70;46.55;;;;;;;3.95;100.00;99821.91;5090579;28;20028;-78
2023/12/07 06:31:14;;;;;;;54.30;36.65;;;;;;;3.77;100.00;99780.03;5091206;28;20032;-79
2023/12/07 06:33:40;;;;;;;55.85;44.63;;;;;;;4.56;100.00;99834.88;5091019;28;20083;-78
2023/12/07 06:36:06;;;;;;;68.57;56.20;;;;;;;4.68;100.00;99835.19;5091259;28;20493;-78
2023/12/07 06:38:31;;;;;;;101.60;87.15;;;;;;;4.42;100.00;99836.53;5073721;28;20420;-80
2023/12/07 06:40:57;;;;;;;63.25;49.85;;;;;;;4.13;100.00;99816.25;5093443;28;20030;-78
2023/12/07 06:43:22;;;;;;;59.80;46.78;;;;;;;4.16;100.00;99805.31;5092914;28;20032;-78
2023/12/07 06:45:48;;;;;;;72.30;46.08;;;;;;;4.16;100.00;99813.25;5072718;28;20120;-78
2023/12/07 06:48:13;;;;;;;49.50;32.92;;;;;;;4.38;100.00;99837.91;5090896;28;20668;-80
2023/12/07 06:50:39;;;;;;;45.13;32.17;;;;;;;4.73;100.00;99844.19;5072891;28;20032;-78
2023/12/07 06:53:04;;;;;;;42.63;29.52;;;;;;;4.96;100.00;99856.44;5094508;28;20052;-79
2023/12/07 06:55:30;;;;;;;44.85;30.92;;;;;;;4.59;100.00;99810.72;5090478;28;20020;-79
2023/12/07 06:57:55;;;;;;;45.60;29.33;;;;;;;4.87;100.00;99833.78;5090553;28;20028;-81
2023/12/07 07:00:21;;;;;;;48.55;32.85;;;;;;;5.04;100.00;99859.75;5090502;28;20435;-80
2023/12/07 07:02:47;;;;;;;53.40;34.38;;;;;;;4.89;100.00;99859.00;5091208;28;20089;-78
2023/12/07 07:05:12;;;;;;;48.38;33.80;;;;;;;5.12;100.00;99881.81;5090242;28;20024;-81
2023/12/07 07:07:38;;;;;;;40.05;28.15;;;;;;;5.33;100.00;99852.75;5090910;28;20057;-79
2023/12/07 07:10:04;;;;;;;38.70;28.73;;;;;;;5.28;100.00;99846.38;5090454;28;20077;-79
2023/12/07 07:12:30;;;;;;;36.15;26.35;;;;;;;5.09;100.00;99822.22;5090286;28;20028;-80
2023/12/07 07:14:56;;;;;;;38.92;29.35;;;;;;;5.49;100.00;99864.06;5090636;28;20039;-79
2023/12/07 07:17:21;;;;;;;35.17;24.45;;;;;;;5.64;100.00;99870.91;5072191;28;20115;-79
2023/12/07 07:19:47;;;;;;;33.67;24.45;;;;;;;5.34;100.00;99832.41;5072215;28;20493;-79
2023/12/07 07:22:12;;;;;;;31.52;22.77;;;;;;;5.69;100.00;99862.38;5093797;28;20031;-79
2023/12/07 07:24:38;;;;;;;35.25;23.40;;;;;;;5.64;100.00;99854.22;5090140;28;20483;-79
2023/12/07 07:27:03;;;;;;;28.08;19.23;;;;;;;5.78;100.00;99850.66;5068029;28;20463;-78
2023/12/07 07:29:29;;;;;;;32.42;22.23;;;;;;;5.82;100.00;99880.19;5051724;28;20063;-79
2023/12/07 07:31:55;;;;;;;24.23;18.20;;;;;;;5.81;100.00;99860.03;5071872;28;20481;-79
2023/12/07 07:34:21;;;;;;;24.67;17.73;;;;;;;6.15;100.00;99877.81;5089817;28;20053;-78
2023/12/07 07:36:46;;;;;;;33.88;20.73;;;;;;;6.34;100.00;99881.59;5088525;28;20070;-79
2023/12/07 07:39:13;;;;;;;37.55;23.23;;;;;;;12.81;100.00;99849.94;5079886;28;20032;-79
2023/12/07 07:41:39;;;;;;;29.25;19.73;;;;;;;16.97;75.30;99922.59;5089658;28;20626;-79
2023/12/07 07:44:04;;;;;;;23.20;15.68;;;;;;;16.70;70.27;99901.19;5089007;28;20062;-79
2023/12/07 07:46:30;;;;;;;24.95;16.13;;;;;;;16.94;67.29;99933.88;5089123;28;20024;-78
2023/12/07 07:48:55;;;;;;;24.00;17.02;;;;;;;15.52;69.21;99909.28;5088890;28;20118;-78
2023/12/07 07:51:21;;;;;;;19.33;13.27;;;;;;;14.56;70.40;99913.34;5088750;28;20474;-79
2023/12/07 07:53:46;;;;;;;20.95;14.60;;;;;;;15.54;68.21;99907.16;5088449;28;20105;-78
2023/12/07 07:56:11;;;;;;;22.77;15.95;;;;;;;13.54;77.27;99891.16;5088907;28;20607;-78
2023/12/07 07:58:37;;;;;;;43.15;27.35;;;;;;;13.04;84.00;99907.94;5071423;28;20029;-79
2023/12/07 08:01:03;;;;;;;24.88;18.15;;;;;;;14.21;77.86;99910.97;5068612;28;20033;-79
2023/12/07 08:03:28;;;;;;;26.38;18.02;;;;;;;16.14;65.62;99915.16;5081523;28;20058;-79
2023/12/07 08:05:54;;;;;;;26.67;19.23;;;;;;;13.87;77.66;99910.97;5089016;28;20028;-79
2023/12/07 08:08:19;;;;;;;29.13;19.70;;;;;;;14.08;78.05;99920.19;5088984;28;20489;-81
2023/12/07 08:10:45;;;;;;;24.98;17.77;;;;;;;13.96;77.74;99909.53;5089405;28;20082;-79
2023/12/07 08:13:10;;;;;;;23.27;16.38;;;;;;;12.49;74.60;99863.78;5089045;28;20024;-79
2023/12/07 08:15:36;;;;;;;23.88;16.90;;;;;;;12.62;76.17;99905.50;5071136;28;20036;-79
2023/12/07 08:18:02;;;;;;;26.90;17.67;;;;;;;13.15;76.67;99904.38;5076583;28;20029;-80
2023/12/07 08:20:27;;;;;;;29.40;18.63;;;;;;;13.64;73.51;99928.84;5051136;28;20020;-79
2023/12/07 08:22:53;;;;;;;26.83;18.70;;;;;;;13.15;73.18;99925.00;5071511;28;20382;-79
2023/12/07 08:25:18;;;;;;;25.27;17.88;;;;;;;13.49;73.63;99895.66;5090437;28;20038;-80
2023/12/07 08:27:47;;;;;;;25.77;18.38;;;;;;;13.97;71.42;99932.59;5089148;28;20518;-79
2023/12/07 08:30:12;;;;;;;29.67;19.92;;;;;;;13.74;70.61;99917.50;5088864;28;20047;-82
2023/12/07 08:32:39;;;;;;;31.55;21.00;;;;;;;13.68;69.48;99874.78;5089246;28;20020;-79
2023/12/07 08:35:05;;;;;;;32.08;20.42;;;;;;;15.45;64.41;99935.56;5094187;28;20123;-79
2023/12/07 08:37:32;;;;;;;35.45;23.63;;;;;;;12.74;75.07;99925.00;5093089;28;20032;-79
2023/12/07 08:39:57;;;;;;;40.17;24.50;;;;;;;9.77;94.38;99901.19;5092927;28;20468;-80
2023/12/07 08:42:23;;;;;;;41.95;25.95;;;;;;;8.94;100.00;99872.84;5074761;28;20035;-78
2023/12/07 08:44:48;;;;;;;44.05;27.92;;;;;;;9.06;100.00;99889.78;5074936;28;20024;-79
2023/12/07 08:47:14;;;;;;;48.35;28.27;;;;;;;8.81;100.00;99908.31;5074483;28;20439;-79
2023/12/07 08:49:39;;;;;;;32.63;20.52;;;;;;;9.64;100.00;99883.44;5092815;28;20043;-81
2023/12/07 08:52:06;;;;;;;30.17;17.92;;;;;;;11.05;91.45;99894.28;5092409;28;20085;-80
2023/12/07 08:54:31;;;;;;;33.53;18.48;;;;;;;10.60;93.96;99911.47;5095430;28;20031;-79
2023/12/07 08:56:57;;;;;;;28.88;17.83;;;;;;;11.18;91.92;99909.31;5092843;28;20039;-79
2023/12/07 08:59:22;;;;;;;27.38;17.05;;;;;;;11.18;91.94;99914.66;5074466;28;20032;-80
2023/12/07 09:01:47;;;;;;;32.20;18.90;;;;;;;12.40;87.57;99924.00;5092382;28;20032;-78
2023/12/07 09:04:13;;;;;;;27.42;17.13;;;;;;;14.16;78.78;99929.66;5074253;28;20450;-78
2023/12/07 09:06:38;;;;;;;30.90;19.98;;;;;;;12.94;80.90;99897.03;5092261;28;20051;-78
2023/12/07 09:09:04;;;;;;;25.30;16.95;;;;;;;12.17;81.19;99880.19;5072149;28;20035;-77
2023/12/07 09:11:30;;;;;;;26.23;16.20;;;;;;;12.04;86.53;99889.28;5072008;28;20417;-78
2023/12/07 09:13:55;;;;;;;24.02;16.67;;;;;;;12.86;86.13;99924.97;5073520;28;20214;-77
2023/12/07 09:16:21;;;;;;;30.55;18.52;;;;;;;12.42;81.66;99887.16;5092009;28;20086;-78
2023/12/07 09:18:47;;;;;;;28.40;16.33;;;;;;;12.43;83.75;99899.50;5091478;28;20092;-78
2023/12/07 09:21:12;;;;;;;27.75;17.20;;;;;;;12.23;84.74;99881.13;5091525;28;20500;-78
2023/12/07 09:23:38;;;;;;;28.05;19.80;;;;;;;12.62;84.61;99917.00;5073553;28;20036;-78
2023/12/07 09:26:04;;;;;;;25.30;17.55;;;;;;;12.63;81.77;99891.09;5073862;28;20123;-78
2023/12/07 09:28:29;;;;;;;28.13;16.85;;;;;;;11.80;85.64;99898.31;5073451;28;20393;-78
2023/12/07 09:30:55;;;;;;;26.90;16.73;;;;;;;11.85;87.74;99896.56;5073419;28;20119;-78
2023/12/07 09:33:20;;;;;;;23.98;16.00;;;;;;;11.18;88.40;99847.94;5073355;28;20468;-80
2023/12/07 09:35:46;;;;;;;27.17;17.15;;;;;;;11.27;91.40;99890.06;5090971;28;20063;-78
2023/12/07 09:38:11;;;;;;;28.73;17.45;;;;;;;10.64;93.23;99872.66;5073134;28;20032;-78
2023/12/07 09:40:37;;;;;;;29.02;17.90;;;;;;;10.61;97.32;99862.41;5090961;28;20047;-79
2023/12/07 09:43:02;;;;;;;28.23;17.48;;;;;;;10.86;97.56;99872.97;5091256;28;20028;-78
2023/12/07 09:45:28;;;;;;;25.33;15.93;;;;;;;11.53;93.69;99887.25;5091011;28;20085;-77
2023/12/07 09:47:54;;;;;;;39.47;23.83;;;;;;;11.41;91.59;99855.97;5064666;28;20638;-78
2023/12/07 09:50:25;;;;;;;267.77;151.85;;;;;;;11.66;92.26;99889.69;5071142;28;20094;-78
2023/12/07 09:52:55;;;;;;;29.52;18.27;;;;;;;11.22;90.42;99889.94;5070933;28;20114;-78
2023/12/07 09:55:22;;;;;;;23.35;15.43;;;;;;;10.68;95.43;99841.00;5061167;28;20439;-79
2023/12/07 09:57:48;;;;;;;27.75;15.73;;;;;;;10.72;96.93;99866.19;5091070;28;20028;-80
2023/12/07 10:00:14;;;;;;;24.02;15.65;;;;;;;10.84;95.22;99885.72;5091185;28;20541;-80
2023/12/07 10:02:41;;;;;;;28.38;19.67;;;;;;;10.62;99.40;99863.22;5090659;28;20028;-78
2023/12/07 10:05:13;;;;;;;30.55;18.70;;;;;;;10.65;100.00;99870.78;5090424;28;20032;-79
2023/12/07 10:07:40;;;;;;;27.38;16.55;;;;;;;10.33;100.00;99876.28;5090816;28;20488;-79
2023/12/07 10:10:07;;;;;;;27.05;16.73;;;;;;;10.61;100.00;99858.94;5091178;28;20044;-77
2023/12/07 10:12:34;;;;;;;41.85;31.23;;;;;;;10.37;100.00;99848.13;5090230;28;20385;-78
2023/12/07 10:15:03;;;;;;;29.55;19.83;;;;;;;10.36;100.00;99862.50;5090289;28;20055;-77
2023/12/07 10:17:47;;;;;;;;;;;;;;;10.39;100.00;99862.06;5090458;28;20411;-79
2023/12/07 10:20:15;;;;;;;26.27;17.48;;;;;;;10.56;100.00;99840.13;5090410;28;20386;-78
2023/12/07 10:22:41;;;;;;;31.48;18.27;;;;;;;10.87;98.04;99847.13;5090604;28;20032;-79
2023/12/07 10:25:07;;;;;;;22.08;13.65;;;;;;;11.21;97.23;99858.94;5090370;28;20488;-78
2023/12/07 10:27:33;;;;;;;20.95;12.10;;;;;;;11.55;91.69;99853.91;5090358;28;20032;-78
2023/12/07 10:29:59;;;;;;;19.98;13.18;;;;;;;11.62;93.28;99859.94;5090526;28;20028;-78
2023/12/07 10:32:25;;;;;;;20.70;12.70;;;;;;;11.64;88.55;99815.13;5090315;28;20804;-78
2023/12/07 10:34:52;;;;;;;19.20;12.25;;;;;;;11.63;87.82;99858.91;5090195;28;20484;-79
2023/12/07 10:37:17;;;;;;;36.10;30.38;;;;;;;11.53;90.90;99856.00;5087818;28;20032;-83
2023/12/07 10:39:43;;;;;;;21.23;13.07;;;;;;;11.54;89.11;99825.56;5070342;28;20090;-77
2023/12/07 10:42:11;;;;;;;20.80;13.18;;;;;;;11.28;90.36;99845.50;5070023;28;20381;-76
2023/12/07 10:44:41;;;;;;;24.20;14.98;;;;;;;11.50;91.19;99843.09;5086832;28;20028;-76
2023/12/07 10:47:10;;;;;;;26.13;17.77;;;;;;;11.94;91.90;99850.84;5089585;28;20028;-78
2023/12/07 10:49:40;;;;;;;30.63;20.08;;;;;;;12.54;89.95;99857.72;5072283;28;20039;-83
2023/12/07 10:52:13;;;;;;;23.38;16.88;;;;;;;12.51;86.90;99828.78;5080611;28;20032;-79
2023/12/07 10:54:50;;;;;;;26.52;20.98;;;;;;;12.86;85.75;99836.66;5079562;28;20488;-77
2023/12/07 10:57:16;;;;;;;25.00;16.45;;;;;;;12.99;88.12;99808.78;5096259;28;20019;-77
2023/12/07 10:59:44;;;;;;;22.30;13.77;;;;;;;13.07;85.37;99830.59;5099251;28;20023;-79
2023/12/07 11:02:14;;;;;;;23.17;13.82;;;;;;;13.15;82.35;99828.59;5077154;28;20043;-75
2023/12/07 11:04:41;;;;;;;18.40;12.35;;;;;;;13.22;79.96;99830.09;5079523;28;20081;-77
2023/12/07 11:07:11;;;;;;;16.52;11.05;;;;;;;13.48;76.25;99851.16;5076617;28;20035;-78
2023/12/07 11:09:42;;;;;;;23.05;16.25;;;;;;;12.98;81.74;99804.50;5089768;28;20031;-78
2023/12/07 11:12:24;;;;;;;20.40;14.27;;;;;;;13.13;81.51;99831.53;5089770;28;20032;-77